Latest Coastal Weather Observations for Yamba

IDN60701

Issued at 10:41 am EDT Sunday 7 February 2016 (issued every 10 minutes, with the page automatically refreshed every 10 minutes)

About coastal observations | Map of coastal stations | Coastal observations for NSW | Marine services | Other Formats
Station Details ID: 058012 Name: YAMBA PILOT STATION Lat: -29.43 Lon: 153.36 Height: 27.4 m
Data from the previous 72 hours. | See also: Recent months at Yamba
Date/Time
EDT
Temp

°C
Wind Pressure Rain
since 9am
mm
Weather Cloud Vis
km
Sea
Height
m
Swell
Dir
 
Speed
knots
Gust
knots
hPa Trend Height
m
Period
s
Dir
07/10:30am 23.1 S 10 17 1015.2 - 0.0 - - - - - - -
07/10:00am 22.3 S 10 15 1015.1 - 0.0 - - - - - - -
07/09:30am 21.6 SSW 10 16 1015.0 - 0.0 - - - - - - -
07/09:00am 21.4 S 10 16 1015.1 - 15.0 - - - - - - -
07/08:30am 21.5 S 12 17 1014.7 - 15.0 - - - - - - -
07/08:00am 21.4 SSW 10 17 1014.8 - 15.0 - - - - - - -
07/07:30am 21.5 SSW 10 15 1014.4 - 15.0 - - - - - - -
07/07:00am 21.3 S 10 15 1013.7 - 15.0 - - - - - - -
07/06:30am 21.2 S 11 19 1013.7 - 15.0 - - - - - - -
07/06:00am 21.1 S 10 17 1013.3 - 15.0 - - - - - - -
07/05:30am 21.2 S 9 14 1013.1 - 15.0 - - - - - - -
07/05:00am 21.1 S 10 16 1013.2 - 15.0 - - - - - - -
07/04:30am 21.0 S 10 16 1012.9 - 15.0 - - - - - - -
07/04:00am 21.1 S 12 17 1012.8 - 15.0 - - - - - - -
07/03:30am 21.0 S 11 16 1012.7 - 15.0 - - - - - - -
07/03:00am 20.9 S 10 15 1012.7 - 15.0 - - - - - - -
07/02:30am 21.3 S 9 13 1013.0 - 15.0 - - - - - - -
07/02:00am 21.6 S 9 13 1013.4 - 15.0 - - - - - - -
07/01:30am 22.7 S 10 19 1013.6 - 15.0 - - - - - - -
07/01:00am 23.6 SSE 12 21 1013.6 - 15.0 - - - - - - -
07/12:30am 23.7 SSE 13 19 1014.2 - 15.0 - - - - - - -
07/12:00am 23.6 SSE 16 25 1014.2 - 15.0 - - - - - - -
 
Date/Time
EDT
Temp

°C
Wind Pressure Rain
since 9am
mm
Weather Cloud Vis
km
Sea
Height
m
Swell
Dir
 
Speed
knots
Gust
knots
hPa Trend Height
m
Period
s
Dir
06/11:30pm 23.6 SSE 16 22 1014.3 - 15.0 - - - - - - -
06/11:00pm 23.7 SE 16 21 1014.1 - 15.0 - - - - - - -
06/10:30pm 23.6 SE 16 22 1014.2 - 15.0 - - - - - - -
06/10:00pm 23.3 SE 18 23 1013.8 - 15.0 - - - - - - -
06/09:30pm 21.9 SSE 15 21 1013.8 - 15.0 - - - - - - -
06/09:00pm 21.6 SSE 15 24 1013.6 - 13.6 Rain - - - - - -
06/08:30pm 21.6 SSE 17 25 1013.4 - 12.6 - - - - - - -
06/08:00pm 22.4 SE 15 25 1013.2 - 11.6 - - - - - - -
06/07:30pm 22.2 SE 17 24 1012.9 - 10.4 - - - - - - -
06/07:11pm 21.8 SE 15 25 1012.7 - 10.2 - - - - - - -
06/07:00pm 22.3 SSE 11 17 1012.6 - 10.2 - - - - - - -
06/06:30pm 22.2 SSE 11 17 1012.2 - 7.4 - - - - - - -
06/06:00pm 22.6 SSE 11 18 1011.7 - 5.8 Recent precip. - - - - - -
06/05:30pm 23.6 SSE 10 15 1011.8 - 5.4 - - - - - - -
06/05:00pm 24.3 SE 16 21 1011.6 - 5.2 - - - - - - -
06/04:30pm 24.5 SE 16 20 1011.4 - 5.2 - - - - - - -
06/04:00pm 24.2 SE 15 20 1011.6 - 5.2 - - - - - - -
06/03:30pm 24.7 SE 15 20 1011.4 - 5.2 - - - - - - -
06/03:00pm 23.3 SE 16 22 1011.7 - 5.2 - - - - - - -
06/02:30pm 24.1 SSE 15 24 1012.0 - 5.2 - - - - - - -
06/02:00pm 24.2 SSE 13 18 1012.2 - 5.2 - - - - - - -
06/01:30pm 23.4 SE 14 20 1012.3 - 5.2 - - - - - - -
06/01:00pm 23.2 SSE 10 15 1012.7 - 5.2 - - - - - - -
06/12:30pm 22.7 SSE 9 15 1013.2 - 4.8 - - - - - - -
06/12:00pm 22.6 SSE 14 22 1013.1 - 4.6 Recent precip. - - - - - -
06/11:30am 22.6 S 11 17 1013.2 - 4.6 - - - - - - -
06/11:00am 22.1 SSE 11 18 1013.3 - 4.4 - - - - - - -
06/10:30am 22.2 SSE 10 17 1013.3 - 3.4 - - - - - - -
06/10:00am 22.1 S 11 17 1013.2 - 0.2 - - - - - - -
06/09:30am 22.6 SSE 12 20 1013.0 - 0.2 - - - - - - -
06/09:00am 22.4 SSE 12 19 1012.8 - 10.2 Recent precip. - - - - - -
06/08:30am 22.5 SSE 13 17 1012.7 - 10.0 - - - - - - -
06/08:00am 21.9 SSE 16 22 1012.5 - 9.6 - - - - - - -
06/07:38am 22.6 SE 18 30 1012.2 - 9.2 - - - - - - -
06/07:30am 22.4 SSE 17 23 1012.1 - 9.0 - - - - - - -
06/07:00am 22.3 SSE 15 22 1011.7 - 9.0 - - - - - - -
06/06:43am 22.4 SE 20 33 1011.5 - 8.6 - - - - - - -
06/06:30am 22.5 SSE 17 24 1011.3 - 8.6 - - - - - - -
06/06:00am 21.6 SSE 15 24 1011.0 - 8.6 Recent precip. - - - - - -
06/05:30am 22.2 SE 20 30 1010.5 - 8.4 - - - - - - -
06/05:26am 22.3 SSE 15 30 1010.6 - 8.4 - - - - - - -
06/05:00am 21.4 S 9 14 1010.4 - 7.2 - - - - - - -
06/04:30am 21.3 S 11 17 1010.3 - 7.0 - - - - - - -
06/04:00am 21.1 S 9 15 1010.4 - 6.8 - - - - - - -
06/03:30am 21.2 S 12 18 1010.7 - 4.2 - - - - - - -
06/03:00am 22.0 S 11 17 1011.0 - 3.2 Rain - - - - - -
06/02:30am 22.3 SSE 12 19 1011.1 - 2.8 - - - - - - -
06/02:00am 22.8 SSE 13 19 1011.3 - 2.8 - - - - - - -
06/01:30am 23.0 SSE 14 20 1011.4 - 2.8 - - - - - - -
06/01:00am 22.5 SSE 13 20 1011.8 - 2.8 - - - - - - -
06/12:30am 22.1 SSE 9 15 1012.2 - 2.8 - - - - - - -
06/12:00am 23.2 SSE 13 23 1012.6 - 1.8 Rain - - - - - -
 
Date/Time
EDT
Temp

°C
Wind Pressure Rain
since 9am
mm
Weather Cloud Vis
km
Sea
Height
m
Swell
Dir
 
Speed
knots
Gust
knots
hPa Trend Height
m
Period
s
Dir
05/11:30pm 23.2 SSE 14 23 1012.7 - 1.6 - - - - - - -
05/11:00pm 23.4 SSE 16 25 1012.8 - 1.4 - - - - - - -
05/10:30pm 24.0 SSE 16 23 1012.8 - 1.4 - - - - - - -
05/10:00pm 23.9 SSE 12 18 1012.9 - 1.4 - - - - - - -
05/09:30pm 24.0 SSE 16 22 1012.6 - 1.4 - - - - - - -
05/09:00pm 23.8 SSE 17 24 1012.2 - 1.4 - - - - - - -
05/08:30pm 23.9 SSE 15 21 1011.9 - 1.4 - - - - - - -
05/08:00pm 23.9 SSE 12 17 1011.6 - 1.4 - - - - - - -
05/07:30pm 23.9 SSE 14 21 1011.0 - 1.4 - - - - - - -
05/07:00pm 24.3 SSE 16 23 1010.9 - 1.4 - - - - - - -
05/06:30pm 24.4 SE 15 22 1010.5 - 1.4 - - - - - - -
05/06:00pm 24.6 SSE 14 20 1010.3 - 1.4 - - - - - - -
05/05:30pm 24.6 SSE 15 21 1010.3 - 1.4 - - - - - - -
05/05:00pm 23.5 SSE 15 23 1010.3 - 1.4 - - - - - - -
05/04:33pm 23.4 SSE 16 26 1010.2 - 1.2 - - - - - - -
05/04:30pm 23.1 SSE 17 26 1010.2 - 1.2 - - - - - - -
05/04:13pm 23.2 SSE 15 29 1010.3 - 1.2 - - - - - - -
05/04:00pm 23.9 SSE 13 20 1010.3 - 1.2 - - - - - - -
05/03:41pm 25.3 SSE 16 27 1010.5 - 0.6 - - - - - - -
05/03:30pm 26.0 SSE 15 20 1010.5 - 0.6 - - - - - - -
05/03:00pm 25.6 SSE 16 26 1010.6 - 0.6 - - - - - - -
05/02:30pm 25.5 SSE 17 27 1010.7 - 0.6 - - - - - - -
05/02:17pm 25.3 SSE 16 26 1010.8 - 0.6 - - - - - - -
05/02:00pm 26.1 SSE 15 24 1010.7 - 0.6 - - - - - - -
05/01:36pm 25.8 SSE 16 26 1010.8 - 0.6 - - - - - - -
05/01:30pm 25.8 SSE 17 25 1010.8 - 0.6 - - - - - - -
05/01:19pm 25.5 SSE 17 29 1010.8 - 0.6 - - - - - - -
05/01:00pm 25.5 SSE 16 25 1010.7 - 0.6 - - - - - - -
05/12:30pm 25.3 SSE 17 26 1010.8 - 0.6 - - - - - - -
05/12:00pm 25.1 SSE 16 26 1010.9 - 0.6 - - - - - - -
05/11:33am 24.8 SSE 15 26 1011.0 - 0.6 - - - - - - -
05/11:30am 24.9 SSE 13 24 1011.0 - 0.6 - - - - - - -
05/11:00am 24.1 SSE 14 22 1010.9 - 0.6 - - - - - - -
05/10:53am 24.1 SSE 15 25 1010.8 - 0.6 - - - - - - -
05/10:30am 24.2 SSE 13 24 1010.7 - 0.6 - - - - - - -
05/10:00am 23.4 S 13 22 1010.6 - 0.6 - - - - - - -
05/09:30am 21.9 S 9 14 1010.6 - 0.6 - - - - - - -
05/09:00am 22.2 S 11 19 1010.4 - 0.0 - - - - - - -
05/08:30am 23.3 S 15 22 1009.9 - 0.0 - - - - - - -
05/08:00am 22.6 S 13 18 1009.6 - 0.0 - - - - - - -
05/07:30am 22.1 S 11 16 1009.4 - 0.0 - - - - - - -
05/07:00am 21.9 S 10 15 1009.0 - 0.0 - - - - - - -
05/06:30am 22.0 SSW 10 16 1008.6 - 0.0 - - - - - - -
05/06:00am 22.0 S 12 17 1008.3 - 0.0 - - - - - - -
05/05:30am 22.1 S 10 16 1007.8 - 0.0 - - - - - - -
05/05:00am 22.0 S 11 17 1007.6 - 0.0 - - - - - - -
05/04:30am 21.9 S 12 19 1007.6 - 0.0 - - - - - - -
05/04:00am 21.8 S 9 13 1007.7 - 0.0 - - - - - - -
05/03:30am 21.7 SSW 8 12 1007.5 - 0.0 - - - - - - -
05/03:00am 21.8 S 9 13 1007.7 - 0.0 - - - - - - -
05/02:30am 22.0 SSW 7 12 1008.0 - 0.0 - - - - - - -
05/02:00am 22.1 S 8 11 1008.3 - 0.0 - - - - - - -
05/01:30am 22.6 S 10 16 1008.7 - 0.0 - - - - - - -
05/01:00am 23.0 SSW 7 11 1009.1 - 0.0 - - - - - - -
05/12:30am 22.9 S 7 10 1009.5 - 0.0 - - - - - - -
05/12:00am 23.0 S 8 12 1009.5 - 0.0 - - - - - - -
 
Date/Time
EDT
Temp

°C
Wind Pressure Rain
since 9am
mm
Weather Cloud Vis
km
Sea
Height
m
Swell
Dir
 
Speed
knots
Gust
knots
hPa Trend Height
m
Period
s
Dir
04/11:30pm 23.3 SSE 9 15 1009.5 - 0.0 - - - - - - -
04/11:00pm 23.5 SSE 9 14 1009.5 - 0.0 - - - - - - -
04/10:30pm 23.6 SSE 11 18 1009.6 - 0.0 - - - - - - -
04/10:00pm 23.4 S 12 21 1009.4 - 0.0 - - - - - - -
04/09:30pm 23.9 SSE 10 18 1009.3 - 0.0 - - - - - - -
04/09:00pm 23.8 SSE 10 15 1009.0 - 0.0 - - - - - - -
04/08:30pm 23.5 S 6 13 1008.8 - 0.0 - - - - - - -
04/08:00pm 23.9 SSE 9 13 1008.4 - 0.0 - - - - - - -
04/07:30pm 24.1 SSE 8 12 1008.1 - 0.0 - - - - - - -
04/07:00pm 24.3 SSE 11 17 1007.7 - 0.0 - - - - - - -
04/06:30pm 24.2 SSE 7 11 1007.3 - 0.0 - - - - - - -
04/06:00pm 24.4 SSE 9 14 1006.7 - 0.0 - - - - - - -
04/05:30pm 24.6 SSE 11 17 1006.5 - 0.0 - - - - - - -
04/05:00pm 24.7 SSE 11 17 1006.7 - 0.0 - - - - - - -
04/04:30pm 24.3 SSE 12 17 1006.7 - 0.0 - - - - - - -
04/04:00pm 24.3 SSE 9 13 1007.3 - 0.0 - - - - - - -
04/03:30pm 25.1 SSE 9 14 1007.4 - 0.0 - - - - - - -
04/03:00pm 24.7 SSE 9 15 1007.5 - 0.0 - - - - - - -
04/02:30pm 25.3 SSE 10 18 1007.8 - 0.0 - - - - - - -
04/02:00pm 25.5 SSE 8 13 1007.9 - 0.0 - - - - - - -
04/01:30pm 25.2 SSE 7 11 1007.9 - 0.0 - - - - - - -
04/01:00pm 24.9 SSE 7 11 1007.8 - 0.0 - - - - - - -
04/12:30pm 24.7 SSE 6 10 1007.9 - 0.0 - - - - - - -
04/12:00pm 25.7 SE 9 13 1007.5 - 0.0 - - - - - - -
04/11:30am 25.4 SE 9 13 1007.6 - 0.0 - - - - - - -
04/11:00am 25.1 SSE 9 13 1007.6 - 0.0 - - - - - - -

Other Formats:

Comma delimited format used in spreadsheet applications
http://www.bom.gov.au/fwo/IDN60701/IDN60701.94589.axf

JavaScript Object Notation format (JSON) in row-major order
http://www.bom.gov.au/fwo/IDN60701/IDN60701.94589.json